Dededo, Guam
Current Conditions -  °F | °C
As of 1:54 PM on Tuesday 21 Oct 2014 (Local Time) from PGUM Reporting Station
Broken Clouds Broken Clouds  
Wind Chill: 88°   Ceiling: 4400
Heat Index: 97°   Visibility: 10mi
Dew Point: 74°   Wind: 8mph
Humidity: 63%   Direction: 50°NE
Pressure: 29.8"   Gusts: NA
Location:  13.51°N, 144.84°E
Report Text: PGUM 210354Z 05007KT 10SM SCT033 BKN044 31/23 A2980 RMK AO2 SLP081 T03110233
Loading
Personal Weather Stations






























Interactive Weather Map New forecast layout! Learn more

10-Day Weather Forecast

Advertisements
Track Severe Weather on mobile